Time;durP1;ratioP1;P1;durP2;ratioP2;P2;SDS_P1;SDS_P2;PMS_P1;PMS_P2;Temp;Humidity;BMP_temperature;BMP_pressure;BME280_temperature;BME280_humidity;BME280_pressure;Samples;Min_cycle;Max_cycle;Signal;HPM_P1;HPM_P2
2021/08/26 00:00:17;;;;;;;9.73;5.70;;;;;;;7.66;85.36;90787.59;4993156;28;20093;-87
2021/08/26 00:05:53;;;;;;;12.25;6.35;;;;;;;7.66;84.54;90792.78;4992962;28;20045;-87
2021/08/26 00:08:22;;;;;;;14.25;6.85;;;;;;;7.78;85.25;90801.75;4992846;28;20104;-87
2021/08/26 00:10:59;;;;;;;12.10;7.18;;;;;;;7.71;84.69;90806.69;4992463;28;20057;-88
2021/08/26 00:13:32;;;;;;;12.35;6.88;;;;;;;7.62;85.34;90793.75;4976614;28;20026;-87
2021/08/26 00:16:08;;;;;;;13.68;7.18;;;;;;;7.61;85.90;90797.41;4992955;28;20084;-87
2021/08/26 00:18:46;;;;;;;18.38;8.23;;;;;;;7.61;84.89;90790.38;4976529;28;20038;-87
2021/08/26 00:21:22;;;;;;;10.45;6.57;;;;;;;7.56;85.69;90785.38;4976072;28;20026;-87
2021/08/26 00:23:59;;;;;;;14.13;6.40;;;;;;;7.66;86.05;90777.22;4992306;28;20030;-87
2021/08/26 00:26:37;;;;;;;10.35;6.10;;;;;;;7.68;85.38;90769.16;4949056;28;20114;-87
2021/08/26 00:29:18;;;;;;;11.23;6.43;;;;;;;7.69;85.00;90769.91;4957291;28;20443;-89
2021/08/26 00:31:58;;;;;;;10.45;5.90;;;;;;;7.79;84.24;90772.16;4941146;28;20089;-87
2021/08/26 00:34:38;;;;;;;12.90;5.97;;;;;;;7.69;84.61;90760.28;4973956;28;20026;-87
2021/08/26 00:37:14;;;;;;;12.38;5.95;;;;;;;7.77;84.07;90769.84;4973142;28;20019;-88
2021/08/26 00:39:50;;;;;;;11.35;5.57;;;;;;;7.55;84.18;90763.09;4940508;28;20023;-87
2021/08/26 00:42:18;;;;;;;10.30;6.22;;;;;;;7.61;84.44;90759.25;4972536;28;20030;-87
2021/08/26 00:44:57;;;;;;;12.82;7.50;;;;;;;7.66;85.43;90766.09;4972724;28;20033;-87
2021/08/26 00:47:34;;;;;;;11.40;6.57;;;;;;;7.73;86.89;90776.00;4940510;28;20039;-87
2021/08/26 00:50:11;;;;;;;12.55;6.78;;;;;;;7.76;87.61;90772.78;4956153;28;20502;-87
2021/08/26 00:52:47;;;;;;;12.43;6.93;;;;;;;7.86;87.08;90762.78;4956225;28;20030;-88
2021/08/26 00:55:18;;;;;;;12.32;6.72;;;;;;;7.93;86.83;90749.31;4973625;28;20058;-88
2021/08/26 00:58:01;;;;;;;15.23;7.47;;;;;;;7.86;87.33;90749.81;4956757;28;20050;-87
2021/08/26 01:00:32;;;;;;;11.88;6.53;;;;;;;7.99;86.84;90748.06;4939998;28;20031;-87
2021/08/26 01:03:15;;;;;;;12.15;7.15;;;;;;;7.98;86.63;90746.53;4971774;28;20097;-87
2021/08/26 01:05:58;;;;;;;11.77;6.78;;;;;;;7.92;87.51;90741.88;4941407;28;20395;-88
2021/08/26 01:08:41;;;;;;;10.55;6.90;;;;;;;7.97;87.43;90744.25;4973405;28;20077;-87
2021/08/26 01:11:16;;;;;;;11.30;6.28;;;;;;;7.95;87.45;90720.44;4971939;28;20031;-87
2021/08/26 01:13:51;;;;;;;14.93;7.45;;;;;;;7.93;87.55;90733.75;4956201;28;20018;-87
2021/08/26 01:16:28;;;;;;;11.50;6.43;;;;;;;7.95;87.10;90733.44;4940039;28;20023;-87
2021/08/26 01:19:11;;;;;;;11.23;6.85;;;;;;;7.88;87.65;90724.31;4956130;28;20040;-87
2021/08/26 01:21:46;;;;;;;14.95;7.95;;;;;;;7.93;88.10;90722.63;4973096;28;20034;-87
2021/08/26 01:24:25;;;;;;;16.08;7.55;;;;;;;7.94;87.68;90724.88;4939906;28;20030;-87
2021/08/26 01:27:01;;;;;;;11.82;7.45;;;;;;;7.91;87.88;90725.50;4969652;28;20022;-87
2021/08/26 01:29:30;;;;;;;12.30;7.05;;;;;;;7.85;87.94;90730.16;4975576;28;20054;-87
2021/08/26 01:32:08;;;;;;;12.77;7.60;;;;;;;7.84;87.44;90723.44;4974781;28;20399;-87
2021/08/26 01:34:47;;;;;;;12.35;7.05;;;;;;;7.84;87.41;90720.06;4949737;28;20062;-85
2021/08/26 01:37:27;;;;;;;13.05;7.05;;;;;;;7.87;87.60;90727.22;4970917;28;20047;-84
2021/08/26 01:40:07;;;;;;;11.13;6.88;;;;;;;7.87;87.40;90724.63;4962164;28;20022;-86
2021/08/26 01:42:42;;;;;;;14.25;7.03;;;;;;;7.86;87.89;90729.06;4946073;28;20030;-85
2021/08/26 01:45:19;;;;;;;12.38;6.63;;;;;;;7.86;88.15;90717.94;4962408;28;20458;-87
2021/08/26 01:47:56;;;;;;;13.20;7.57;;;;;;;7.87;88.56;90720.19;4962010;28;20403;-85
2021/08/26 01:50:35;;;;;;;14.75;6.50;;;;;;;7.85;88.18;90713.81;4977943;28;20027;-85
2021/08/26 01:53:16;;;;;;;11.23;6.35;;;;;;;7.80;87.23;90708.81;4961874;28;20027;-85
2021/08/26 01:55:54;;;;;;;13.18;6.88;;;;;;;7.66;86.78;90720.16;4979241;28;20038;-87
2021/08/26 01:58:34;;;;;;;13.00;7.10;;;;;;;7.69;88.82;90715.44;4961430;28;20031;-87
2021/08/26 02:01:14;;;;;;;10.93;6.38;;;;;;;7.81;87.15;90715.50;4946613;28;20479;-87
2021/08/26 02:03:55;;;;;;;11.48;6.95;;;;;;;7.70;87.33;90714.34;4981530;28;20113;-87
2021/08/26 02:06:36;;;;;;;10.55;6.25;;;;;;;7.63;87.81;90720.81;4965001;28;20027;-87
2021/08/26 02:09:12;;;;;;;13.07;7.82;;;;;;;7.63;88.82;90713.03;4998783;28;20069;-87
2021/08/26 02:11:47;;;;;;;10.93;6.88;;;;;;;7.61;88.67;90717.78;4981968;28;20030;-88
2021/08/26 02:14:25;;;;;;;11.73;6.70;;;;;;;7.57;87.79;90711.69;4981925;28;20242;-85
2021/08/26 02:17:01;;;;;;;12.52;7.05;;;;;;;7.60;88.84;90703.28;4997986;28;20390;-85
2021/08/26 02:19:38;;;;;;;12.18;6.75;;;;;;;7.61;88.91;90697.03;4981694;28;20030;-85
2021/08/26 02:22:14;;;;;;;12.68;6.90;;;;;;;7.60;88.81;90692.16;4981997;28;20065;-86
2021/08/26 02:25:00;;;;;;;12.20;7.13;;;;;;;7.59;89.43;90693.97;4998322;28;20054;-86
2021/08/26 02:27:38;;;;;;;11.57;7.10;;;;;;;7.60;89.24;90695.50;4997374;28;20026;-86
2021/08/26 02:30:13;;;;;;;11.30;6.93;;;;;;;7.54;88.81;90686.38;4996436;28;20026;-86
2021/08/26 02:32:46;;;;;;;10.40;6.85;;;;;;;7.61;88.89;90686.66;4981099;28;20038;-85
2021/08/26 02:35:26;;;;;;;12.70;7.03;;;;;;;7.61;88.67;90676.28;4980863;28;20033;-86
2021/08/26 02:38:08;;;;;;;12.38;6.70;;;;;;;7.56;89.67;90684.25;4980813;28;20018;-85
2021/08/26 02:40:49;;;;;;;12.05;7.20;;;;;;;7.61;89.44;90678.13;4997709;28;20022;-86
2021/08/26 02:43:26;;;;;;;13.23;7.03;;;;;;;7.59;90.36;90673.22;4981840;28;20054;-85
2021/08/26 02:46:01;;;;;;;11.55;6.85;;;;;;;7.73;89.41;90672.97;4981569;28;20046;-86
2021/08/26 02:48:36;;;;;;;13.15;7.28;;;;;;;7.65;89.76;90666.78;4981316;28;20026;-85
2021/08/26 02:51:15;;;;;;;10.30;6.85;;;;;;;7.58;89.06;90658.75;4960930;28;20483;-86
2021/08/26 02:53:56;;;;;;;13.60;7.22;;;;;;;7.65;89.74;90656.41;4978168;28;20034;-86
2021/08/26 02:56:36;;;;;;;12.43;6.88;;;;;;;7.70;90.16;90657.28;4977166;28;20038;-85
2021/08/26 02:59:13;;;;;;;14.55;7.30;;;;;;;7.64;89.36;90648.97;4976750;28;20027;-86
2021/08/26 03:01:51;;;;;;;13.52;7.35;;;;;;;7.71;89.40;90653.66;4994075;28;20513;-85
2021/08/26 03:04:32;;;;;;;11.25;6.43;;;;;;;7.68;89.31;90649.09;4977407;28;20046;-85
2021/08/26 03:07:12;;;;;;;12.38;6.93;;;;;;;7.70;89.53;90654.69;4993980;28;20034;-85
2021/08/26 03:09:51;;;;;;;10.98;6.70;;;;;;;7.59;89.17;90662.84;4977362;28;20042;-85
2021/08/26 03:12:29;;;;;;;11.50;7.05;;;;;;;7.58;89.32;90666.53;4978012;28;20018;-85
2021/08/26 03:15:06;;;;;;;11.07;6.43;;;;;;;7.56;89.16;90658.31;4962075;28;20650;-86
2021/08/26 03:17:48;;;;;;;13.73;6.90;;;;;;;7.43;88.51;90649.69;4978239;28;20053;-86
2021/08/26 03:20:32;;;;;;;11.35;6.60;;;;;;;7.51;89.06;90655.91;4961358;28;20058;-86
2021/08/26 03:23:08;;;;;;;11.27;6.90;;;;;;;7.49;89.40;90647.69;4977622;28;20027;-85
2021/08/26 03:25:44;;;;;;;13.75;7.32;;;;;;;7.43;89.22;90647.09;4977147;28;20026;-85
2021/08/26 03:28:17;;;;;;;11.38;6.93;;;;;;;7.44;89.12;90647.84;4977361;28;20026;-85
2021/08/26 03:30:54;;;;;;;15.02;7.93;;;;;;;7.35;89.04;90652.31;4961057;28;20443;-86
2021/08/26 03:33:37;;;;;;;11.38;6.57;;;;;;;7.32;88.96;90653.72;4977131;28;20022;-85
2021/08/26 03:36:11;;;;;;;9.35;5.97;;;;;;;7.38;88.72;90654.28;4993457;28;20080;-85
2021/08/26 03:38:49;;;;;;;11.73;6.88;;;;;;;7.32;88.22;90652.97;4977223;28;20022;-87
2021/08/26 03:41:29;;;;;;;10.85;6.50;;;;;;;7.17;88.22;90649.84;4992958;28;20027;-85
2021/08/26 03:44:12;;;;;;;12.43;7.28;;;;;;;7.19;88.91;90655.47;4992841;28;20027;-85
2021/08/26 03:46:44;;;;;;;11.30;6.53;;;;;;;7.16;88.29;90656.09;4992784;28;20105;-88
2021/08/26 03:49:23;;;;;;;9.93;6.55;;;;;;;7.15;88.06;90654.56;4960650;28;20461;-85
2021/08/26 03:52:02;;;;;;;11.02;6.05;;;;;;;7.12;87.44;90644.81;4976870;28;20030;-85
2021/08/26 03:54:40;;;;;;;9.63;5.70;;;;;;;7.05;87.08;90648.97;4992902;28;20038;-85
2021/08/26 03:57:14;;;;;;;11.23;6.63;;;;;;;6.98;87.84;90644.28;4977020;28;20018;-86
2021/08/26 03:59:53;;;;;;;12.82;6.60;;;;;;;7.05;87.53;90644.56;4993809;28;20057;-86
2021/08/26 04:02:30;;;;;;;8.52;5.95;;;;;;;7.00;87.59;90639.56;4976468;28;20026;-85
2021/08/26 04:05:07;;;;;;;10.90;6.50;;;;;;;6.88;88.13;90631.69;5055075;23;20049;-90
2021/08/26 04:07:39;;;;;;;11.32;6.75;;;;;;;7.04;88.40;90631.94;5015278;28;20026;-87
2021/08/26 04:10:16;;;;;;;11.77;6.43;;;;;;;6.90;87.94;90637.31;5000707;28;20021;-87
2021/08/26 04:12:55;;;;;;;11.75;6.07;;;;;;;6.90;88.05;90632.13;5001062;28;20048;-87
2021/08/26 04:15:35;;;;;;;13.13;7.10;;;;;;;6.95;88.49;90632.72;4997319;28;20025;-86
2021/08/26 04:18:12;;;;;;;12.95;6.82;;;;;;;6.80;88.02;90622.13;4980938;28;20018;-88
2021/08/26 04:20:49;;;;;;;14.10;7.30;;;;;;;6.89;88.38;90630.59;4996163;28;20034;-87
2021/08/26 04:23:27;;;;;;;8.95;6.43;;;;;;;6.85;88.51;90637.47;4992845;28;20037;-87
2021/08/26 04:26:04;;;;;;;11.57;7.22;;;;;;;6.89;88.12;90638.38;5000091;28;20394;-88
2021/08/26 04:28:42;;;;;;;23.70;13.90;;;;;;;6.83;88.15;90631.88;4996980;28;20041;-87
2021/08/26 04:31:18;;;;;;;16.17;9.20;;;;;;;6.83;88.55;90621.50;4963328;28;20442;-89
2021/08/26 04:33:51;;;;;;;11.05;6.30;;;;;;;6.87;88.27;90619.81;4962165;28;20030;-88
2021/08/26 04:36:27;;;;;;;11.55;6.45;;;;;;;6.84;88.79;90607.47;4993196;28;20494;-88
2021/08/26 04:39:06;;;;;;;12.90;6.80;;;;;;;6.85;89.81;90620.09;4993476;28;20030;-88
2021/08/26 04:41:43;;;;;;;11.10;6.63;;;;;;;6.94;88.30;90618.25;4967931;28;20030;-87
2021/08/26 04:44:21;;;;;;;10.35;6.60;;;;;;;6.86;87.84;90605.34;4999444;28;20020;-90
2021/08/26 04:47:02;;;;;;;11.60;6.57;;;;;;;6.74;87.62;90603.41;5001981;28;20054;-87
2021/08/26 04:49:34;;;;;;;10.15;7.22;;;;;;;6.78;87.62;90624.25;4983352;28;20046;-87
2021/08/26 04:52:10;;;;;;;24.02;14.45;;;;;;;6.92;86.39;90615.19;4976965;28;20026;-87
2021/08/26 04:54:52;;;;;;;15.50;8.10;;;;;;;6.63;86.77;90605.56;4977355;28;20022;-87
2021/08/26 04:57:27;;;;;;;13.10;7.68;;;;;;;6.79;88.18;90615.44;4978275;28;20019;-88
2021/08/26 05:00:11;;;;;;;15.88;8.40;;;;;;;6.79;90.15;90605.06;4977237;28;20026;-88
2021/08/26 05:02:51;;;;;;;16.55;7.50;;;;;;;6.78;90.37;90614.66;4961817;28;20033;-88
2021/08/26 05:05:29;;;;;;;10.43;6.45;;;;;;;6.84;90.73;90608.22;4961572;28;20030;-87
2021/08/26 05:08:07;;;;;;;13.48;7.25;;;;;;;6.86;91.29;90607.94;4977227;28;20030;-88
2021/08/26 05:10:47;;;;;;;10.82;6.85;;;;;;;6.95;90.29;90629.38;4976202;28;20121;-87
2021/08/26 05:13:23;;;;;;;10.27;6.70;;;;;;;6.95;89.85;90634.53;4976822;28;20026;-89
2021/08/26 05:16:01;;;;;;;9.88;6.45;;;;;;;6.91;88.74;90628.47;4977946;28;20030;-88
2021/08/26 05:18:36;;;;;;;9.38;6.20;;;;;;;6.83;87.85;90622.25;4993847;28;20097;-87
2021/08/26 05:21:16;;;;;;;10.95;5.85;;;;;;;6.94;87.69;90640.81;5019130;28;20046;-90
2021/08/26 05:23:51;;;;;;;10.60;6.50;;;;;;;6.93;87.82;90636.69;4993818;28;20034;-87
2021/08/26 05:26:31;;;;;;;14.77;7.72;;;;;;;6.90;89.50;90645.84;5012737;28;20053;-87
2021/08/26 05:29:08;;;;;;;11.07;7.57;;;;;;;6.95;89.68;90644.91;4996059;28;20035;-87
2021/08/26 05:31:46;;;;;;;12.13;7.22;;;;;;;6.96;89.36;90641.22;5011924;28;20021;-88
2021/08/26 05:34:24;;;;;;;11.98;6.93;;;;;;;7.07;89.18;90647.59;5012129;28;20089;-87
2021/08/26 05:37:02;;;;;;;11.35;7.15;;;;;;;7.07;89.82;90647.59;4995637;28;20029;-88
2021/08/26 05:39:38;;;;;;;12.98;8.57;;;;;;;7.12;90.10;90650.00;5013385;28;20065;-88
2021/08/26 05:42:17;;;;;;;15.85;8.13;;;;;;;7.23;89.90;90653.00;5025726;28;20038;-89
2021/08/26 05:44:58;;;;;;;9.73;6.53;;;;;;;7.25;89.52;90650.88;5004177;28;20033;-88
2021/08/26 05:47:38;;;;;;;10.40;5.97;;;;;;;7.29;88.28;90663.97;5011964;28;20390;-87
2021/08/26 05:50:14;;;;;;;11.27;6.78;;;;;;;7.27;87.91;90655.72;5013456;28;20029;-88
2021/08/26 05:52:54;;;;;;;11.18;6.13;;;;;;;7.33;87.65;90650.06;5017971;28;20058;-87
2021/08/26 05:55:26;;;;;;;11.88;6.72;;;;;;;7.26;87.89;90633.47;5008194;28;20455;-87
2021/08/26 05:57:54;;;;;;;12.63;7.20;;;;;;;7.49;87.99;90652.09;5003272;28;20037;-90
2021/08/26 06:00:25;;;;;;;11.68;6.78;;;;;;;7.51;88.67;90655.91;5002808;28;20092;-86
2021/08/26 06:02:57;;;;;;;13.30;7.65;;;;;;;7.57;88.90;90656.47;4996109;28;20046;-87
2021/08/26 06:05:23;;;;;;;12.52;7.18;;;;;;;7.76;88.84;90656.03;5004584;28;20032;-87
2021/08/26 06:07:54;;;;;;;13.05;8.23;;;;;;;7.85;88.92;90643.78;4979148;28;20033;-87
2021/08/26 06:10:22;;;;;;;15.43;7.88;;;;;;;7.83;88.65;90627.75;4995771;28;20030;-88
2021/08/26 06:12:50;;;;;;;14.27;8.80;;;;;;;7.81;88.01;90616.94;5012813;28;20029;-87
2021/08/26 06:15:15;;;;;;;14.85;7.65;;;;;;;8.00;87.64;90608.69;4991102;28;20030;-88
2021/08/26 06:17:41;;;;;;;11.55;7.90;;;;;;;8.18;88.29;90624.88;4978609;28;20019;-87
2021/08/26 06:20:11;;;;;;;20.48;9.27;;;;;;;8.36;88.70;90626.22;4992784;28;20146;-87
2021/08/26 06:22:38;;;;;;;12.70;7.95;;;;;;;8.67;90.32;90635.41;5007938;28;20100;-86
2021/08/26 06:25:08;;;;;;;17.63;9.30;;;;;;;8.72;90.18;90630.00;5012754;28;20101;-88
2021/08/26 06:27:36;;;;;;;10.15;6.90;;;;;;;8.69;89.34;90621.00;5000369;28;20061;-87
2021/08/26 06:30:03;;;;;;;10.73;6.55;;;;;;;8.75;89.11;90617.13;5033413;28;20022;-88
2021/08/26 06:32:30;;;;;;;12.93;8.15;;;;;;;8.79;88.64;90617.22;4996585;28;20084;-88
2021/08/26 06:35:02;;;;;;;12.45;8.23;;;;;;;8.97;89.36;90621.13;5011553;28;20545;-88
2021/08/26 06:37:31;;;;;;;14.30;9.07;;;;;;;9.21;89.97;90624.84;4993074;28;20193;-87
2021/08/26 06:40:03;;;;;;;14.93;9.43;;;;;;;9.39;90.47;90628.72;4981089;28;20038;-88
2021/08/26 06:42:30;;;;;;;15.40;8.88;;;;;;;9.51;90.65;90615.72;5002496;28;20025;-88
2021/08/26 06:44:58;;;;;;;13.57;8.43;;;;;;;9.58;89.74;90615.91;4988732;28;20186;-88
2021/08/26 06:47:24;;;;;;;12.45;7.88;;;;;;;9.74;89.94;90617.81;5016378;28;20084;-87
2021/08/26 06:49:54;;;;;;;14.77;8.93;;;;;;;9.81;89.32;90605.00;5013344;28;20061;-88
2021/08/26 06:52:24;;;;;;;16.52;8.82;;;;;;;9.94;89.76;90606.47;4981052;28;20487;-88
2021/08/26 06:54:54;;;;;;;13.88;8.90;;;;;;;10.16;89.83;90612.25;4981192;28;20115;-88
2021/08/26 06:57:27;;;;;;;15.63;9.38;;;;;;;10.26;88.21;90599.56;4981839;28;20022;-87
2021/08/26 06:59:56;;;;;;;15.50;8.80;;;;;;;10.42;89.59;90606.63;4981220;28;20060;-87
2021/08/26 07:02:24;;;;;;;14.02;7.85;;;;;;;10.50;88.19;90601.28;4981963;28;20121;-88
2021/08/26 07:04:54;;;;;;;13.68;8.00;;;;;;;10.71;85.92;90605.50;4994825;28;20663;-86
2021/08/26 07:07:21;;;;;;;13.23;8.30;;;;;;;10.82;84.58;90601.31;5000355;28;20467;-87
2021/08/26 07:09:47;;;;;;;15.85;8.18;;;;;;;10.95;82.18;90597.53;4999485;28;20030;-87
2021/08/26 07:12:14;;;;;;;17.55;8.60;;;;;;;11.00;82.92;90592.03;5019028;28;20022;-89
2021/08/26 07:14:42;;;;;;;16.02;8.02;;;;;;;11.14;82.35;90598.69;5006989;28;20498;-88
2021/08/26 07:17:08;;;;;;;15.40;8.32;;;;;;;11.16;81.43;90594.63;4985050;28;20053;-89
2021/08/26 07:19:34;;;;;;;12.90;7.55;;;;;;;11.24;82.61;90593.72;5001924;28;20030;-88
2021/08/26 07:22:01;;;;;;;14.90;7.80;;;;;;;11.33;83.79;90603.19;4999875;28;20033;-87
2021/08/26 07:24:28;;;;;;;16.00;8.98;;;;;;;11.52;84.66;90599.88;4985669;28;20033;-89
2021/08/26 07:26:55;;;;;;;15.88;8.63;;;;;;;11.56;85.60;90601.47;5009540;28;20029;-87
2021/08/26 07:29:22;;;;;;;16.90;8.15;;;;;;;11.68;84.73;90608.41;4999138;28;20026;-87
2021/08/26 07:31:49;;;;;;;17.17;8.45;;;;;;;11.79;85.55;90609.41;5013939;28;20030;-88
2021/08/26 07:34:16;;;;;;;16.42;7.85;;;;;;;11.82;84.41;90597.53;5002635;28;20010;-90
2021/08/26 07:36:48;;;;;;;17.67;7.70;;;;;;;11.82;84.07;90587.81;5004957;28;20042;-86
2021/08/26 07:39:19;;;;;;;14.32;8.13;;;;;;;11.91;84.50;90605.94;4986055;28;20418;-88
2021/08/26 07:41:50;;;;;;;15.05;7.43;;;;;;;12.00;82.49;90611.72;5016374;28;20457;-88
2021/08/26 07:44:20;;;;;;;19.63;8.82;;;;;;;12.00;83.86;90608.34;4999926;28;20025;-88
2021/08/26 07:46:48;;;;;;;15.43;7.25;;;;;;;12.01;81.96;90594.94;4999205;28;20018;-88
2021/08/26 07:49:13;;;;;;;16.83;8.20;;;;;;;12.15;79.50;90597.06;4998272;28;20091;-88
2021/08/26 07:51:39;;;;;;;15.60;7.25;;;;;;;12.34;74.24;90589.22;5015159;28;20022;-87
2021/08/26 07:54:08;;;;;;;16.52;7.50;;;;;;;12.42;75.26;90588.25;4998530;28;20050;-88
2021/08/26 07:56:38;;;;;;;12.80;7.50;;;;;;;12.71;75.79;90588.72;5012925;28;20022;-88
2021/08/26 07:59:10;;;;;;;18.92;7.03;;;;;;;12.77;70.55;90589.97;5014458;28;20022;-85
2021/08/26 08:01:36;;;;;;;13.38;7.03;;;;;;;12.85;71.10;90593.44;5001748;28;20025;-86
2021/08/26 08:04:03;;;;;;;13.45;6.85;;;;;;;12.89;71.26;90589.78;5016259;28;20103;-88
2021/08/26 08:06:33;;;;;;;11.88;6.40;;;;;;;13.03;73.54;90580.66;5000983;28;20072;-89
2021/08/26 08:09:00;;;;;;;15.68;7.10;;;;;;;13.36;68.36;90583.44;4997343;28;20026;-88
2021/08/26 08:11:29;;;;;;;16.40;7.10;;;;;;;13.32;70.60;90587.88;4999685;28;20540;-88
2021/08/26 08:13:56;;;;;;;15.48;6.53;;;;;;;13.54;67.71;90582.94;5012695;28;20114;-88
2021/08/26 08:16:22;;;;;;;12.25;6.25;;;;;;;13.52;67.36;90582.53;5012842;28;20030;-88
2021/08/26 08:18:49;;;;;;;14.20;7.00;;;;;;;13.60;66.85;90584.91;5014747;28;20033;-87
2021/08/26 08:21:16;;;;;;;12.40;6.32;;;;;;;13.67;66.82;90588.69;4997631;28;20085;-88
2021/08/26 08:23:43;;;;;;;11.55;6.20;;;;;;;13.81;66.26;90581.03;5013258;28;20374;-87
2021/08/26 08:26:11;;;;;;;14.65;6.07;;;;;;;13.82;65.08;90587.78;5020604;28;20039;-88
2021/08/26 08:28:38;;;;;;;10.50;5.43;;;;;;;13.98;61.37;90588.34;5018163;28;20038;-86
2021/08/26 08:31:05;;;;;;;14.90;5.90;;;;;;;13.91;62.55;90587.50;4974193;28;20601;-85
2021/08/26 08:33:32;;;;;;;11.98;6.57;;;;;;;14.14;63.21;90605.78;4970617;28;20010;-89
2021/08/26 08:35:59;;;;;;;13.20;5.60;;;;;;;14.17;60.32;90592.72;4973077;28;20483;-85
2021/08/26 08:38:27;;;;;;;12.02;6.07;;;;;;;14.14;62.77;90587.44;4966496;28;20038;-85
2021/08/26 08:40:53;;;;;;;12.95;6.38;;;;;;;14.19;61.49;90592.34;4980908;28;20037;-86
2021/08/26 08:43:20;;;;;;;13.60;5.97;;;;;;;14.43;62.60;90598.97;4982066;28;20039;-85
2021/08/26 08:45:53;;;;;;;12.23;5.63;;;;;;;14.51;60.85;90597.97;4979782;28;20030;-85
2021/08/26 08:48:24;;;;;;;10.20;5.70;;;;;;;14.78;64.26;90591.50;4962598;28;20034;-85
2021/08/26 08:50:52;;;;;;;12.27;5.80;;;;;;;14.97;61.76;90587.16;4979229;28;20034;-85
2021/08/26 08:53:24;;;;;;;14.52;6.10;;;;;;;14.98;61.51;90601.78;4992815;28;20109;-87
2021/08/26 08:55:54;;;;;;;12.65;6.22;;;;;;;14.87;60.86;90585.19;4992361;28;20506;-86
2021/08/26 08:58:21;;;;;;;16.17;6.28;;;;;;;14.94;61.09;90587.88;4977727;28;20033;-87
2021/08/26 09:00:53;;;;;;;13.75;6.32;;;;;;;14.87;61.85;90588.56;4994146;28;20038;-87
2021/08/26 09:03:24;;;;;;;12.93;6.28;;;;;;;14.94;62.16;90591.25;4979598;28;20073;-87
2021/08/26 09:06:00;;;;;;;13.20;6.70;;;;;;;14.94;62.94;90587.88;4994563;28;20028;-88
2021/08/26 09:08:28;;;;;;;16.98;7.38;;;;;;;15.01;62.16;90587.94;4994974;28;20038;-87
2021/08/26 09:11:09;;;;;;;13.65;7.25;;;;;;;15.07;60.59;90591.75;4978953;28;20029;-87
2021/08/26 09:13:35;;;;;;;18.55;6.97;;;;;;;14.90;61.16;90573.97;4996755;28;20030;-86
2021/08/26 09:16:05;;;;;;;16.70;7.65;;;;;;;15.17;61.20;90585.81;5015169;28;20049;-86
2021/08/26 09:18:33;;;;;;;17.55;6.85;;;;;;;15.22;60.50;90572.34;4998726;28;20068;-87
2021/08/26 09:21:10;;;;;;;18.13;8.05;;;;;;;15.44;60.57;90583.00;4998829;28;20030;-87
2021/08/26 09:23:52;;;;;;;16.45;7.88;;;;;;;15.09;61.01;90586.91;5000984;28;20022;-86
2021/08/26 09:26:25;;;;;;;14.52;7.30;;;;;;;15.06;61.25;90590.25;5016387;28;20025;-87
2021/08/26 09:28:53;;;;;;;16.63;7.78;;;;;;;15.42;59.96;90580.00;4999609;28;20034;-87
2021/08/26 09:31:23;;;;;;;14.55;7.07;;;;;;;15.67;60.24;90585.44;4998674;28;20032;-87
2021/08/26 09:33:57;;;;;;;16.70;7.22;;;;;;;15.62;59.25;90583.13;4996590;28;20052;-86
2021/08/26 09:36:25;;;;;;;14.15;7.53;;;;;;;15.64;59.60;90580.88;5017133;28;20029;-88
2021/08/26 09:38:54;;;;;;;13.38;6.90;;;;;;;15.80;60.04;90580.66;5014746;28;20029;-88
2021/08/26 09:41:40;;;;;;;15.73;7.50;;;;;;;15.53;58.92;90580.81;4995026;28;20048;-87
2021/08/26 09:44:35;;;;;;;22.10;8.10;;;;;;;16.01;60.20;90583.38;4995797;28;20435;-87
2021/08/26 09:47:11;;;;;;;14.82;7.45;;;;;;;16.20;58.46;90577.06;5035599;28;20022;-89
2021/08/26 09:49:44;;;;;;;13.07;6.53;;;;;;;16.63;58.73;90570.03;5022229;28;20068;-87
2021/08/26 09:52:23;;;;;;;15.52;7.30;;;;;;;16.54;57.81;90561.00;5011036;28;20021;-87
2021/08/26 09:54:56;;;;;;;12.75;6.85;;;;;;;16.35;57.28;90569.97;5010674;28;20033;-87
2021/08/26 09:57:29;;;;;;;16.63;6.82;;;;;;;16.27;56.80;90561.31;4979020;28;20026;-87
2021/08/26 10:00:00;;;;;;;13.88;6.70;;;;;;;16.25;57.02;90564.31;5012821;28;20367;-87
2021/08/26 10:02:29;;;;;;;20.20;7.97;;;;;;;15.94;57.41;90557.06;4998437;28;20069;-88
2021/08/26 10:04:57;;;;;;;14.38;7.25;;;;;;;15.94;57.08;90562.31;5066170;23;20501;-86
2021/08/26 10:07:26;;;;;;;17.88;8.15;;;;;;;15.62;58.30;90562.09;5026849;28;20080;-85
2021/08/26 10:09:54;;;;;;;15.13;7.28;;;;;;;16.00;59.70;90569.47;4988746;28;20025;-86
2021/08/26 10:12:24;;;;;;;18.08;7.70;;;;;;;16.32;59.39;90570.72;5002357;28;20025;-86
2021/08/26 10:14:54;;;;;;;16.75;7.53;;;;;;;16.16;58.22;90569.16;4998260;28;20662;-85
2021/08/26 10:17:24;;;;;;;13.05;7.00;;;;;;;16.01;58.08;90572.88;4998501;28;20014;-85
2021/08/26 10:19:54;;;;;;;17.60;6.72;;;;;;;16.10;58.75;90570.63;4982780;28;20025;-85
2021/08/26 10:22:23;;;;;;;15.57;7.65;;;;;;;16.15;59.28;90566.91;4981809;28;20553;-85
2021/08/26 10:24:51;;;;;;;14.18;7.13;;;;;;;16.60;60.00;90576.06;4999400;28;20025;-85
2021/08/26 10:27:27;;;;;;;14.15;7.07;;;;;;;16.73;57.14;90579.84;4998105;28;20448;-85
2021/08/26 10:29:56;;;;;;;15.90;7.68;;;;;;;16.04;56.71;90573.97;4966857;28;20033;-86
2021/08/26 10:32:25;;;;;;;13.52;6.40;;;;;;;16.35;59.57;90577.88;4997761;28;20036;-86
2021/08/26 10:35:11;;;;;;;14.23;7.45;;;;;;;16.44;57.39;90580.91;4982698;28;20546;-85
2021/08/26 10:37:50;;;;;;;16.70;7.68;;;;;;;16.27;56.73;90573.72;4996915;28;20107;-85
2021/08/26 10:40:34;;;;;;;14.38;6.90;;;;;;;16.29;57.70;90581.97;4979959;28;20030;-84
2021/08/26 10:43:04;;;;;;;17.80;8.73;;;;;;;15.85;57.72;90575.03;4996498;28;20116;-85
2021/08/26 10:45:47;;;;;;;18.33;7.95;;;;;;;15.72;58.87;90571.94;4962940;28;20103;-85
2021/08/26 10:48:15;;;;;;;14.38;7.45;;;;;;;15.91;58.19;90570.94;4978120;28;20030;-86
2021/08/26 10:50:41;;;;;;;13.38;7.25;;;;;;;15.85;58.25;90572.41;4978646;28;20514;-85
2021/08/26 10:53:12;;;;;;;14.63;7.50;;;;;;;15.85;57.75;90570.53;4994436;28;20023;-85
2021/08/26 10:55:46;;;;;;;14.05;7.00;;;;;;;15.86;58.43;90576.53;4978329;28;20034;-85
2021/08/26 10:58:23;;;;;;;13.52;7.05;;;;;;;15.39;60.10;90575.47;4978493;28;20105;-85
2021/08/26 11:01:01;;;;;;;14.70;7.05;;;;;;;15.79;60.00;90579.88;4997726;28;20017;-86
2021/08/26 11:03:36;;;;;;;18.85;8.27;;;;;;;15.44;59.89;90578.53;4981641;28;20072;-84
2021/08/26 11:06:16;;;;;;;12.45;6.97;;;;;;;15.66;61.71;90578.69;5014182;28;20041;-86
2021/08/26 11:08:44;;;;;;;18.25;7.68;;;;;;;15.86;59.05;90576.53;4982278;28;20117;-85
2021/08/26 11:11:29;;;;;;;16.00;8.13;;;;;;;15.97;60.56;90570.22;4963711;28;20025;-85
2021/08/26 11:14:17;;;;;;;13.55;7.05;;;;;;;15.91;60.46;90573.56;4994411;28;20029;-85
2021/08/26 11:16:44;;;;;;;13.70;7.40;;;;;;;16.09;59.87;90571.75;4980431;28;20057;-85
2021/08/26 11:19:15;;;;;;;16.13;7.75;;;;;;;15.94;58.48;90576.22;4976673;28;20018;-85
2021/08/26 11:21:44;;;;;;;13.95;7.78;;;;;;;15.29;59.97;90580.28;4978781;28;20579;-85
2021/08/26 11:24:12;;;;;;;14.20;7.30;;;;;;;15.62;60.44;90573.38;4996316;28;20036;-86
2021/08/26 11:26:50;;;;;;;15.15;7.95;;;;;;;15.40;61.77;90561.22;5001713;28;20030;-85
2021/08/26 11:29:25;;;;;;;15.02;7.28;;;;;;;15.51;60.64;90562.03;4982274;28;20029;-85
2021/08/26 11:31:54;;;;;;;16.35;7.60;;;;;;;15.78;57.87;90560.72;5013781;28;20112;-86
2021/08/26 11:34:36;;;;;;;14.27;7.45;;;;;;;15.75;58.50;90556.19;4996890;28;20113;-85
2021/08/26 11:37:19;;;;;;;13.82;7.30;;;;;;;15.87;58.59;90549.16;5014392;28;20014;-85
2021/08/26 11:39:52;;;;;;;16.20;7.53;;;;;;;15.63;58.00;90564.38;4979690;28;20029;-85
2021/08/26 11:42:19;;;;;;;14.18;7.43;;;;;;;15.58;59.33;90558.72;4977296;28;20023;-87
2021/08/26 11:45:11;;;;;;;12.98;7.30;;;;;;;15.65;58.77;90551.63;4994107;28;20080;-87
2021/08/26 11:47:39;;;;;;;13.82;6.80;;;;;;;15.69;58.77;90549.81;4977060;28;20080;-87
2021/08/26 11:50:15;;;;;;;11.70;6.20;;;;;;;15.90;59.95;90551.03;4983945;28;20087;-88
2021/08/26 11:52:50;;;;;;;13.05;6.22;;;;;;;15.75;59.11;90550.19;5011819;28;20029;-88
2021/08/26 11:55:17;;;;;;;10.93;6.55;;;;;;;15.88;57.93;90558.53;4996755;28;20021;-88
2021/08/26 11:57:51;;;;;;;13.00;6.63;;;;;;;15.86;56.53;90569.41;4982050;28;20154;-88
2021/08/26 12:00:23;;;;;;;13.88;6.65;;;;;;;15.63;58.35;90555.75;4960622;28;20022;-88
2021/08/26 12:02:53;;;;;;;13.57;6.72;;;;;;;15.52;57.80;90563.56;4961124;28;20030;-88